sensor_id;sensor_type;location;lat;lon;timestamp;P1;durP1;ratioP1;P2;durP2;ratioP2
6878;SDS011;3478;51.462;7.338;2023-02-20T00:02:41;3.00;;;1.93;;
6878;SDS011;3478;51.462;7.338;2023-02-20T00:07:44;2.50;;;2.30;;
6878;SDS011;3478;51.462;7.338;2023-02-20T00:12:46;3.70;;;2.03;;
6878;SDS011;3478;51.462;7.338;2023-02-20T00:17:48;6.20;;;3.00;;
6878;SDS011;3478;51.462;7.338;2023-02-20T00:22:52;5.17;;;3.83;;
6878;SDS011;3478;51.462;7.338;2023-02-20T00:27:55;3.17;;;2.97;;
6878;SDS011;3478;51.462;7.338;2023-02-20T00:32:57;7.30;;;5.43;;
6878;SDS011;3478;51.462;7.338;2023-02-20T00:38:00;6.50;;;4.30;;
6878;SDS011;3478;51.462;7.338;2023-02-20T00:43:02;12.83;;;5.53;;
6878;SDS011;3478;51.462;7.338;2023-02-20T00:48:04;14.57;;;7.73;;
6878;SDS011;3478;51.462;7.338;2023-02-20T00:53:07;9.70;;;6.57;;
6878;SDS011;3478;51.462;7.338;2023-02-20T00:58:09;8.83;;;6.50;;
6878;SDS011;3478;51.462;7.338;2023-02-20T01:03:11;19.20;;;8.63;;
6878;SDS011;3478;51.462;7.338;2023-02-20T01:08:14;16.80;;;10.20;;
6878;SDS011;3478;51.462;7.338;2023-02-20T01:13:16;17.67;;;9.67;;
6878;SDS011;3478;51.462;7.338;2023-02-20T01:18:19;15.47;;;9.33;;
6878;SDS011;3478;51.462;7.338;2023-02-20T01:23:22;18.80;;;11.40;;
6878;SDS011;3478;51.462;7.338;2023-02-20T01:28:24;19.60;;;10.60;;
6878;SDS011;3478;51.462;7.338;2023-02-20T01:33:26;26.80;;;11.73;;
6878;SDS011;3478;51.462;7.338;2023-02-20T01:38:29;22.70;;;11.40;;
6878;SDS011;3478;51.462;7.338;2023-02-20T01:43:31;14.00;;;9.37;;
6878;SDS011;3478;51.462;7.338;2023-02-20T01:48:32;19.60;;;10.73;;
6878;SDS011;3478;51.462;7.338;2023-02-20T01:53:35;12.90;;;8.93;;
6878;SDS011;3478;51.462;7.338;2023-02-20T01:58:39;15.83;;;9.00;;
6878;SDS011;3478;51.462;7.338;2023-02-20T02:03:44;12.77;;;8.73;;
6878;SDS011;3478;51.462;7.338;2023-02-20T02:08:51;11.93;;;8.43;;
6878;SDS011;3478;51.462;7.338;2023-02-20T02:13:54;15.00;;;7.27;;
6878;SDS011;3478;51.462;7.338;2023-02-20T02:18:58;14.53;;;7.90;;
6878;SDS011;3478;51.462;7.338;2023-02-20T02:24:29;15.70;;;8.77;;
6878;SDS011;3478;51.462;7.338;2023-02-20T02:30:02;12.20;;;8.00;;
6878;SDS011;3478;51.462;7.338;2023-02-20T02:35:39;11.63;;;6.87;;
6878;SDS011;3478;51.462;7.338;2023-02-20T02:41:05;14.00;;;8.50;;
6878;SDS011;3478;51.462;7.338;2023-02-20T02:46:13;11.50;;;8.63;;
6878;SDS011;3478;51.462;7.338;2023-02-20T02:51:20;15.50;;;9.23;;
6878;SDS011;3478;51.462;7.338;2023-02-20T02:56:32;13.40;;;8.67;;
6878;SDS011;3478;51.462;7.338;2023-02-20T03:01:36;15.87;;;8.80;;
6878;SDS011;3478;51.462;7.338;2023-02-20T03:06:43;14.23;;;8.03;;
6878;SDS011;3478;51.462;7.338;2023-02-20T03:11:48;17.70;;;8.90;;
6878;SDS011;3478;51.462;7.338;2023-02-20T03:16:52;18.97;;;9.97;;
6878;SDS011;3478;51.462;7.338;2023-02-20T03:21:57;15.70;;;9.00;;
6878;SDS011;3478;51.462;7.338;2023-02-20T03:27:02;14.87;;;7.73;;
6878;SDS011;3478;51.462;7.338;2023-02-20T03:32:06;10.87;;;7.93;;
6878;SDS011;3478;51.462;7.338;2023-02-20T03:37:28;19.43;;;10.13;;
6878;SDS011;3478;51.462;7.338;2023-02-20T03:42:52;13.73;;;7.73;;
6878;SDS011;3478;51.462;7.338;2023-02-20T03:48:18;13.23;;;8.70;;
6878;SDS011;3478;51.462;7.338;2023-02-20T03:53:24;13.10;;;8.10;;
6878;SDS011;3478;51.462;7.338;2023-02-20T03:58:28;15.30;;;8.00;;
6878;SDS011;3478;51.462;7.338;2023-02-20T04:03:35;15.97;;;8.10;;
6878;SDS011;3478;51.462;7.338;2023-02-20T04:08:41;14.37;;;7.70;;
6878;SDS011;3478;51.462;7.338;2023-02-20T04:13:48;16.47;;;9.30;;
6878;SDS011;3478;51.462;7.338;2023-02-20T04:18:53;14.80;;;7.67;;
6878;SDS011;3478;51.462;7.338;2023-02-20T04:23:57;16.43;;;9.80;;
6878;SDS011;3478;51.462;7.338;2023-02-20T04:29:06;9.57;;;7.13;;
6878;SDS011;3478;51.462;7.338;2023-02-20T04:34:08;17.90;;;8.60;;
6878;SDS011;3478;51.462;7.338;2023-02-20T04:39:10;13.37;;;6.83;;
6878;SDS011;3478;51.462;7.338;2023-02-20T04:44:13;12.23;;;7.23;;
6878;SDS011;3478;51.462;7.338;2023-02-20T04:49:34;8.20;;;5.43;;
6878;SDS011;3478;51.462;7.338;2023-02-20T04:54:36;8.20;;;6.00;;
6878;SDS011;3478;51.462;7.338;2023-02-20T04:59:39;10.73;;;5.63;;
6878;SDS011;3478;51.462;7.338;2023-02-20T05:04:41;10.43;;;6.40;;
6878;SDS011;3478;51.462;7.338;2023-02-20T05:09:42;12.77;;;6.73;;
6878;SDS011;3478;51.462;7.338;2023-02-20T05:14:46;11.00;;;5.77;;
6878;SDS011;3478;51.462;7.338;2023-02-20T05:19:47;11.90;;;7.50;;
6878;SDS011;3478;51.462;7.338;2023-02-20T05:24:50;16.73;;;6.27;;
6878;SDS011;3478;51.462;7.338;2023-02-20T05:29:54;12.27;;;6.63;;
6878;SDS011;3478;51.462;7.338;2023-02-20T05:34:57;12.43;;;6.07;;
6878;SDS011;3478;51.462;7.338;2023-02-20T05:39:59;9.40;;;6.13;;
6878;SDS011;3478;51.462;7.338;2023-02-20T05:45:02;10.70;;;5.60;;
6878;SDS011;3478;51.462;7.338;2023-02-20T05:50:05;12.50;;;6.70;;
6878;SDS011;3478;51.462;7.338;2023-02-20T05:55:07;9.13;;;5.37;;
6878;SDS011;3478;51.462;7.338;2023-02-20T06:00:11;8.10;;;4.53;;
6878;SDS011;3478;51.462;7.338;2023-02-20T06:05:14;15.43;;;6.20;;
6878;SDS011;3478;51.462;7.338;2023-02-20T06:10:17;7.60;;;3.97;;
6878;SDS011;3478;51.462;7.338;2023-02-20T06:15:21;10.00;;;5.97;;
6878;SDS011;3478;51.462;7.338;2023-02-20T06:20:22;15.83;;;5.73;;
6878;SDS011;3478;51.462;7.338;2023-02-20T06:25:24;9.50;;;5.63;;
6878;SDS011;3478;51.462;7.338;2023-02-20T06:30:27;11.17;;;6.60;;
6878;SDS011;3478;51.462;7.338;2023-02-20T06:35:29;12.57;;;7.10;;
6878;SDS011;3478;51.462;7.338;2023-02-20T06:40:31;10.40;;;6.73;;
6878;SDS011;3478;51.462;7.338;2023-02-20T06:45:34;20.03;;;8.27;;
6878;SDS011;3478;51.462;7.338;2023-02-20T06:50:36;14.80;;;9.80;;
6878;SDS011;3478;51.462;7.338;2023-02-20T06:55:38;15.73;;;10.20;;
6878;SDS011;3478;51.462;7.338;2023-02-20T07:00:41;17.93;;;9.87;;
6878;SDS011;3478;51.462;7.338;2023-02-20T07:05:43;14.57;;;10.00;;
6878;SDS011;3478;51.462;7.338;2023-02-20T07:10:45;12.90;;;10.10;;
6878;SDS011;3478;51.462;7.338;2023-02-20T07:15:48;23.27;;;12.17;;
6878;SDS011;3478;51.462;7.338;2023-02-20T07:20:50;21.53;;;11.83;;
6878;SDS011;3478;51.462;7.338;2023-02-20T07:25:52;25.83;;;14.17;;
6878;SDS011;3478;51.462;7.338;2023-02-20T07:30:55;18.73;;;13.00;;
6878;SDS011;3478;51.462;7.338;2023-02-20T07:35:57;26.37;;;15.97;;
6878;SDS011;3478;51.462;7.338;2023-02-20T07:41:01;20.83;;;12.30;;
6878;SDS011;3478;51.462;7.338;2023-02-20T07:46:04;20.80;;;11.43;;
6878;SDS011;3478;51.462;7.338;2023-02-20T07:51:06;19.40;;;11.50;;
6878;SDS011;3478;51.462;7.338;2023-02-20T07:56:08;27.27;;;16.17;;
6878;SDS011;3478;51.462;7.338;2023-02-20T08:01:11;25.80;;;12.60;;
6878;SDS011;3478;51.462;7.338;2023-02-20T08:06:15;22.07;;;11.47;;
6878;SDS011;3478;51.462;7.338;2023-02-20T08:11:17;17.73;;;12.20;;
6878;SDS011;3478;51.462;7.338;2023-02-20T08:16:21;24.03;;;12.50;;
6878;SDS011;3478;51.462;7.338;2023-02-20T08:21:23;17.67;;;12.67;;
6878;SDS011;3478;51.462;7.338;2023-02-20T08:26:28;23.67;;;12.60;;
6878;SDS011;3478;51.462;7.338;2023-02-20T08:31:31;16.90;;;12.60;;
6878;SDS011;3478;51.462;7.338;2023-02-20T08:36:33;17.37;;;11.70;;
6878;SDS011;3478;51.462;7.338;2023-02-20T08:41:40;20.47;;;11.73;;
6878;SDS011;3478;51.462;7.338;2023-02-20T08:46:46;19.30;;;11.50;;
6878;SDS011;3478;51.462;7.338;2023-02-20T08:51:51;16.93;;;11.33;;
6878;SDS011;3478;51.462;7.338;2023-02-20T08:56:54;21.67;;;12.40;;
6878;SDS011;3478;51.462;7.338;2023-02-20T09:01:57;24.23;;;12.80;;
6878;SDS011;3478;51.462;7.338;2023-02-20T09:06:59;17.67;;;11.70;;
6878;SDS011;3478;51.462;7.338;2023-02-20T09:12:00;19.93;;;11.77;;
6878;SDS011;3478;51.462;7.338;2023-02-20T09:17:04;18.73;;;12.40;;
6878;SDS011;3478;51.462;7.338;2023-02-20T09:22:06;21.83;;;12.53;;
6878;SDS011;3478;51.462;7.338;2023-02-20T09:27:08;21.83;;;11.37;;
6878;SDS011;3478;51.462;7.338;2023-02-20T09:32:11;17.77;;;11.23;;
6878;SDS011;3478;51.462;7.338;2023-02-20T09:37:14;16.10;;;11.27;;
6878;SDS011;3478;51.462;7.338;2023-02-20T09:42:19;19.73;;;11.70;;
6878;SDS011;3478;51.462;7.338;2023-02-20T09:47:31;17.00;;;10.90;;
6878;SDS011;3478;51.462;7.338;2023-02-20T09:52:42;19.00;;;11.50;;
6878;SDS011;3478;51.462;7.338;2023-02-20T09:57:49;19.80;;;11.50;;
6878;SDS011;3478;51.462;7.338;2023-02-20T10:02:56;18.43;;;10.30;;
6878;SDS011;3478;51.462;7.338;2023-02-20T10:08:08;23.60;;;12.27;;
6878;SDS011;3478;51.462;7.338;2023-02-20T10:13:15;23.63;;;13.07;;
6878;SDS011;3478;51.462;7.338;2023-02-20T10:18:33;12.50;;;10.17;;
6878;SDS011;3478;51.462;7.338;2023-02-20T10:23:47;22.77;;;11.00;;
6878;SDS011;3478;51.462;7.338;2023-02-20T10:28:50;16.97;;;11.13;;
6878;SDS011;3478;51.462;7.338;2023-02-20T10:33:56;46.33;;;11.07;;
6878;SDS011;3478;51.462;7.338;2023-02-20T10:39:04;17.60;;;10.40;;
6878;SDS011;3478;51.462;7.338;2023-02-20T10:44:10;17.70;;;10.70;;
6878;SDS011;3478;51.462;7.338;2023-02-20T10:49:22;18.73;;;12.53;;
6878;SDS011;3478;51.462;7.338;2023-02-20T10:54:33;25.50;;;11.40;;
6878;SDS011;3478;51.462;7.338;2023-02-20T10:59:38;22.23;;;11.50;;
6878;SDS011;3478;51.462;7.338;2023-02-20T11:04:49;17.27;;;11.50;;
6878;SDS011;3478;51.462;7.338;2023-02-20T11:09:53;16.43;;;10.40;;
6878;SDS011;3478;51.462;7.338;2023-02-20T11:14:56;17.97;;;9.43;;
6878;SDS011;3478;51.462;7.338;2023-02-20T11:20:03;14.80;;;10.00;;
6878;SDS011;3478;51.462;7.338;2023-02-20T11:25:13;20.83;;;12.77;;
6878;SDS011;3478;51.462;7.338;2023-02-20T11:30:21;19.63;;;10.40;;
6878;SDS011;3478;51.462;7.338;2023-02-20T11:35:30;16.70;;;11.80;;
6878;SDS011;3478;51.462;7.338;2023-02-20T11:40:34;15.50;;;9.93;;
6878;SDS011;3478;51.462;7.338;2023-02-20T11:45:36;20.87;;;12.87;;
6878;SDS011;3478;51.462;7.338;2023-02-20T11:50:40;23.70;;;10.87;;
6878;SDS011;3478;51.462;7.338;2023-02-20T11:55:43;18.23;;;10.20;;
6878;SDS011;3478;51.462;7.338;2023-02-20T12:00:46;19.33;;;10.30;;
6878;SDS011;3478;51.462;7.338;2023-02-20T12:05:50;16.93;;;9.10;;
6878;SDS011;3478;51.462;7.338;2023-02-20T12:10:52;20.27;;;11.37;;
6878;SDS011;3478;51.462;7.338;2023-02-20T12:15:59;13.17;;;9.40;;
6878;SDS011;3478;51.462;7.338;2023-02-20T12:21:14;19.07;;;10.80;;
6878;SDS011;3478;51.462;7.338;2023-02-20T12:26:28;13.20;;;9.10;;
6878;SDS011;3478;51.462;7.338;2023-02-20T12:31:45;15.13;;;9.37;;
6878;SDS011;3478;51.462;7.338;2023-02-20T12:37:00;21.70;;;10.23;;
6878;SDS011;3478;51.462;7.338;2023-02-20T12:42:11;24.43;;;11.20;;
6878;SDS011;3478;51.462;7.338;2023-02-20T12:47:26;18.57;;;12.20;;
6878;SDS011;3478;51.462;7.338;2023-02-20T12:58:02;19.23;;;10.70;;
6878;SDS011;3478;51.462;7.338;2023-02-20T13:03:15;17.27;;;10.60;;
6878;SDS011;3478;51.462;7.338;2023-02-20T13:08:24;16.37;;;10.50;;
6878;SDS011;3478;51.462;7.338;2023-02-20T13:13:37;20.77;;;11.77;;
6878;SDS011;3478;51.462;7.338;2023-02-20T13:18:52;19.43;;;12.00;;
6878;SDS011;3478;51.462;7.338;2023-02-20T13:24:12;20.17;;;11.53;;
6878;SDS011;3478;51.462;7.338;2023-02-20T13:29:28;17.33;;;11.17;;
6878;SDS011;3478;51.462;7.338;2023-02-20T13:34:32;17.10;;;10.70;;
6878;SDS011;3478;51.462;7.338;2023-02-20T13:39:41;20.70;;;11.77;;
6878;SDS011;3478;51.462;7.338;2023-02-20T13:44:43;20.63;;;11.20;;
6878;SDS011;3478;51.462;7.338;2023-02-20T13:49:52;28.47;;;12.23;;
6878;SDS011;3478;51.462;7.338;2023-02-20T13:54:58;14.23;;;10.90;;
6878;SDS011;3478;51.462;7.338;2023-02-20T14:00:07;19.57;;;10.87;;
6878;SDS011;3478;51.462;7.338;2023-02-20T14:05:30;26.23;;;12.43;;
6878;SDS011;3478;51.462;7.338;2023-02-20T14:10:34;23.00;;;11.20;;
6878;SDS011;3478;51.462;7.338;2023-02-20T14:15:42;34.87;;;11.80;;
6878;SDS011;3478;51.462;7.338;2023-02-20T14:20:46;24.97;;;12.27;;
6878;SDS011;3478;51.462;7.338;2023-02-20T14:25:54;20.37;;;12.07;;
6878;SDS011;3478;51.462;7.338;2023-02-20T14:31:16;16.57;;;11.67;;
6878;SDS011;3478;51.462;7.338;2023-02-20T14:36:30;21.77;;;12.03;;
6878;SDS011;3478;51.462;7.338;2023-02-20T14:41:39;26.97;;;11.90;;
6878;SDS011;3478;51.462;7.338;2023-02-20T14:46:52;22.90;;;12.20;;
6878;SDS011;3478;51.462;7.338;2023-02-20T14:52:18;24.20;;;14.60;;
6878;SDS011;3478;51.462;7.338;2023-02-20T14:57:23;25.10;;;14.30;;
6878;SDS011;3478;51.462;7.338;2023-02-20T15:02:26;25.37;;;14.57;;
6878;SDS011;3478;51.462;7.338;2023-02-20T15:07:29;27.43;;;15.30;;
6878;SDS011;3478;51.462;7.338;2023-02-20T15:12:35;36.53;;;16.67;;
6878;SDS011;3478;51.462;7.338;2023-02-20T15:17:40;28.67;;;16.00;;
6878;SDS011;3478;51.462;7.338;2023-02-20T15:22:42;26.30;;;15.47;;
6878;SDS011;3478;51.462;7.338;2023-02-20T15:28:08;40.63;;;16.80;;
6878;SDS011;3478;51.462;7.338;2023-02-20T15:33:12;26.97;;;15.00;;
6878;SDS011;3478;51.462;7.338;2023-02-20T15:38:14;24.17;;;15.47;;
6878;SDS011;3478;51.462;7.338;2023-02-20T15:43:17;23.60;;;14.27;;
6878;SDS011;3478;51.462;7.338;2023-02-20T15:48:19;28.87;;;14.90;;
6878;SDS011;3478;51.462;7.338;2023-02-20T15:53:22;26.77;;;16.00;;
6878;SDS011;3478;51.462;7.338;2023-02-20T15:58:28;30.30;;;17.30;;
6878;SDS011;3478;51.462;7.338;2023-02-20T16:03:31;27.37;;;15.23;;
6878;SDS011;3478;51.462;7.338;2023-02-20T16:08:34;31.43;;;18.80;;
6878;SDS011;3478;51.462;7.338;2023-02-20T16:13:37;40.60;;;16.97;;
6878;SDS011;3478;51.462;7.338;2023-02-20T16:18:42;29.13;;;15.67;;
6878;SDS011;3478;51.462;7.338;2023-02-20T16:23:45;29.93;;;18.00;;
6878;SDS011;3478;51.462;7.338;2023-02-20T16:28:51;37.93;;;16.67;;
6878;SDS011;3478;51.462;7.338;2023-02-20T16:33:56;31.37;;;16.90;;
6878;SDS011;3478;51.462;7.338;2023-02-20T16:38:58;34.40;;;15.73;;
6878;SDS011;3478;51.462;7.338;2023-02-20T16:44:01;32.07;;;15.90;;
6878;SDS011;3478;51.462;7.338;2023-02-20T16:49:03;27.70;;;14.23;;
6878;SDS011;3478;51.462;7.338;2023-02-20T16:54:05;35.03;;;16.70;;
6878;SDS011;3478;51.462;7.338;2023-02-20T16:59:08;32.13;;;17.37;;
6878;SDS011;3478;51.462;7.338;2023-02-20T17:04:10;30.07;;;18.80;;
6878;SDS011;3478;51.462;7.338;2023-02-20T17:09:13;31.33;;;17.00;;
6878;SDS011;3478;51.462;7.338;2023-02-20T17:14:16;39.27;;;17.63;;
6878;SDS011;3478;51.462;7.338;2023-02-20T17:19:18;29.57;;;15.87;;
6878;SDS011;3478;51.462;7.338;2023-02-20T17:24:20;30.47;;;17.20;;
6878;SDS011;3478;51.462;7.338;2023-02-20T17:29:23;38.77;;;18.33;;
6878;SDS011;3478;51.462;7.338;2023-02-20T17:34:26;37.53;;;18.47;;
6878;SDS011;3478;51.462;7.338;2023-02-20T17:39:27;38.60;;;18.20;;
6878;SDS011;3478;51.462;7.338;2023-02-20T17:44:31;31.83;;;16.43;;
6878;SDS011;3478;51.462;7.338;2023-02-20T17:49:33;30.43;;;17.70;;
6878;SDS011;3478;51.462;7.338;2023-02-20T17:54:35;31.00;;;17.80;;
6878;SDS011;3478;51.462;7.338;2023-02-20T17:59:40;27.47;;;17.20;;
6878;SDS011;3478;51.462;7.338;2023-02-20T18:04:42;31.70;;;17.77;;
6878;SDS011;3478;51.462;7.338;2023-02-20T18:09:44;35.33;;;21.80;;
6878;SDS011;3478;51.462;7.338;2023-02-20T18:14:47;31.67;;;18.80;;
6878;SDS011;3478;51.462;7.338;2023-02-20T18:19:50;38.43;;;19.33;;
6878;SDS011;3478;51.462;7.338;2023-02-20T18:24:51;29.13;;;18.60;;
6878;SDS011;3478;51.462;7.338;2023-02-20T18:29:55;31.37;;;19.20;;
6878;SDS011;3478;51.462;7.338;2023-02-20T18:34:56;38.10;;;17.77;;
6878;SDS011;3478;51.462;7.338;2023-02-20T18:39:58;30.80;;;19.00;;
6878;SDS011;3478;51.462;7.338;2023-02-20T18:45:02;31.77;;;18.03;;
6878;SDS011;3478;51.462;7.338;2023-02-20T18:50:04;31.67;;;18.90;;
6878;SDS011;3478;51.462;7.338;2023-02-20T18:55:06;31.03;;;20.07;;
6878;SDS011;3478;51.462;7.338;2023-02-20T19:00:11;31.23;;;18.20;;
6878;SDS011;3478;51.462;7.338;2023-02-20T19:05:15;34.80;;;20.10;;
6878;SDS011;3478;51.462;7.338;2023-02-20T19:10:18;38.90;;;18.43;;
6878;SDS011;3478;51.462;7.338;2023-02-20T19:15:22;36.87;;;20.20;;
6878;SDS011;3478;51.462;7.338;2023-02-20T19:20:25;31.87;;;18.40;;
6878;SDS011;3478;51.462;7.338;2023-02-20T19:25:27;27.67;;;16.90;;
6878;SDS011;3478;51.462;7.338;2023-02-20T19:30:31;37.03;;;19.60;;
6878;SDS011;3478;51.462;7.338;2023-02-20T19:35:32;30.70;;;18.70;;
6878;SDS011;3478;51.462;7.338;2023-02-20T19:40:34;37.60;;;19.67;;
6878;SDS011;3478;51.462;7.338;2023-02-20T19:45:37;31.57;;;18.40;;
6878;SDS011;3478;51.462;7.338;2023-02-20T19:50:39;31.23;;;18.40;;
6878;SDS011;3478;51.462;7.338;2023-02-20T19:55:41;37.63;;;20.47;;
6878;SDS011;3478;51.462;7.338;2023-02-20T20:00:48;31.83;;;18.13;;
6878;SDS011;3478;51.462;7.338;2023-02-20T20:05:50;29.73;;;18.47;;
6878;SDS011;3478;51.462;7.338;2023-02-20T20:10:52;33.87;;;19.23;;
6878;SDS011;3478;51.462;7.338;2023-02-20T20:15:56;39.93;;;21.20;;
6878;SDS011;3478;51.462;7.338;2023-02-20T20:20:58;34.07;;;17.87;;
6878;SDS011;3478;51.462;7.338;2023-02-20T20:26:00;40.73;;;19.43;;
6878;SDS011;3478;51.462;7.338;2023-02-20T20:31:04;45.50;;;26.63;;
6878;SDS011;3478;51.462;7.338;2023-02-20T20:36:06;36.57;;;18.10;;
6878;SDS011;3478;51.462;7.338;2023-02-20T20:41:08;30.23;;;18.17;;
6878;SDS011;3478;51.462;7.338;2023-02-20T20:46:12;32.47;;;17.40;;
6878;SDS011;3478;51.462;7.338;2023-02-20T20:51:16;34.60;;;20.70;;
6878;SDS011;3478;51.462;7.338;2023-02-20T20:56:18;24.03;;;16.30;;
6878;SDS011;3478;51.462;7.338;2023-02-20T21:01:22;28.27;;;17.40;;
6878;SDS011;3478;51.462;7.338;2023-02-20T21:06:23;26.47;;;16.67;;
6878;SDS011;3478;51.462;7.338;2023-02-20T21:11:25;31.23;;;18.47;;
6878;SDS011;3478;51.462;7.338;2023-02-20T21:16:29;31.60;;;17.80;;
6878;SDS011;3478;51.462;7.338;2023-02-20T21:21:30;37.53;;;21.30;;
6878;SDS011;3478;51.462;7.338;2023-02-20T21:26:32;29.67;;;17.90;;
6878;SDS011;3478;51.462;7.338;2023-02-20T21:31:40;28.80;;;18.37;;
6878;SDS011;3478;51.462;7.338;2023-02-20T21:36:43;34.37;;;16.77;;
6878;SDS011;3478;51.462;7.338;2023-02-20T21:41:46;23.97;;;16.50;;
6878;SDS011;3478;51.462;7.338;2023-02-20T21:47:08;26.57;;;16.83;;
6878;SDS011;3478;51.462;7.338;2023-02-20T21:52:11;27.33;;;18.27;;
6878;SDS011;3478;51.462;7.338;2023-02-20T21:57:13;24.83;;;17.47;;
6878;SDS011;3478;51.462;7.338;2023-02-20T22:02:17;37.73;;;19.50;;
6878;SDS011;3478;51.462;7.338;2023-02-20T22:07:19;32.97;;;18.60;;
6878;SDS011;3478;51.462;7.338;2023-02-20T22:12:38;25.80;;;16.60;;
6878;SDS011;3478;51.462;7.338;2023-02-20T22:17:59;29.37;;;18.13;;
6878;SDS011;3478;51.462;7.338;2023-02-20T22:23:19;34.37;;;19.43;;
6878;SDS011;3478;51.462;7.338;2023-02-20T22:28:38;30.97;;;18.07;;
6878;SDS011;3478;51.462;7.338;2023-02-20T22:33:59;32.53;;;18.17;;
6878;SDS011;3478;51.462;7.338;2023-02-20T22:39:18;31.37;;;17.83;;
6878;SDS011;3478;51.462;7.338;2023-02-20T22:44:37;29.67;;;17.87;;
6878;SDS011;3478;51.462;7.338;2023-02-20T22:49:58;27.90;;;18.30;;
6878;SDS011;3478;51.462;7.338;2023-02-20T22:55:17;25.30;;;16.93;;
6878;SDS011;3478;51.462;7.338;2023-02-20T23:00:37;29.67;;;18.07;;
6878;SDS011;3478;51.462;7.338;2023-02-20T23:05:57;38.30;;;20.47;;
6878;SDS011;3478;51.462;7.338;2023-02-20T23:11:18;31.97;;;18.27;;
6878;SDS011;3478;51.462;7.338;2023-02-20T23:16:37;34.00;;;19.90;;
6878;SDS011;3478;51.462;7.338;2023-02-20T23:21:57;37.30;;;19.30;;
6878;SDS011;3478;51.462;7.338;2023-02-20T23:27:17;36.73;;;21.43;;
6878;SDS011;3478;51.462;7.338;2023-02-20T23:32:37;37.40;;;20.53;;
6878;SDS011;3478;51.462;7.338;2023-02-20T23:37:59;34.67;;;19.77;;
6878;SDS011;3478;51.462;7.338;2023-02-20T23:43:18;38.20;;;22.03;;
6878;SDS011;3478;51.462;7.338;2023-02-20T23:48:37;32.90;;;20.67;;
6878;SDS011;3478;51.462;7.338;2023-02-20T23:53:58;33.10;;;19.93;;
6878;SDS011;3478;51.462;7.338;2023-02-20T23:59:18;39.77;;;19.80;;
